Meteorología y climatología de Navarra
Datos de la estación - Meteo Navarra

Estación de Aoiz GN

Altitud 534 m.


Datos desde el 11/01/2019 hasta el 12/01/2019 en horario solar
Los datos son PROVISIONALES

Anterior Página 1 de 1 Siguiente Descargar: Formato para Excel 2000 o superior   Formato csv   Formato para OpenOffice Calc
Fecha Temperatura Humedad relativa Radiación global Insolación Precipitación Velocidad viento 10 m Velocidad viento 10 m Dirección viento 10 m
ºC % W/m² s l/m² m/s km/h º
11/01/2019 0:00 -0.2 66 0.0 0 0.0 2.4 8.6 331
11/01/2019 0:10 -0.1 66 0.0 0 0.0 2.9 10.4 304
11/01/2019 0:20 -0.0 66 0.0 0 0.0 2.4 8.5 331
11/01/2019 0:30 -0.1 67 0.0 0 0.0 2.4 8.7 304
11/01/2019 0:40 -0.1 68 0.0 0 0.0 1.7 6.2 337
11/01/2019 0:50 -0.1 68 0.0 0 0.0 2.0 7.2 304
11/01/2019 1:00 -0.1 68 0.0 0 0.0 2.4 8.5 298
11/01/2019 1:10 -0.2 69 0.0 0 0.0 2.9 10.5 297
11/01/2019 1:20 -0.2 69 0.0 0 0.0 3.1 11.2 297
11/01/2019 1:30 -0.3 69 0.0 0 0.0 2.8 10.0 305
11/01/2019 1:40 -0.2 69 0.0 0 0.0 3.4 12.2 312
11/01/2019 1:50 -0.3 69 0.0 0 0.0 3.1 11.1 313
11/01/2019 2:00 -0.3 69 0.0 0 0.0 3.1 11.2 304
11/01/2019 2:10 -0.5 69 0.0 0 0.0 3.4 12.1 306
11/01/2019 2:20 -0.6 70 0.0 0 0.0 3.4 12.1 304
11/01/2019 2:30 -0.6 69 0.0 0 0.0 3.5 12.7 310
11/01/2019 2:40 -0.6 69 0.0 0 0.0 4.0 14.2 310
11/01/2019 2:50 -0.6 69 0.0 0 0.0 3.3 11.8 315
11/01/2019 3:00 -0.6 69 0.0 0 0.0 3.4 12.2 319
11/01/2019 3:10 -0.7 70 0.0 0 0.0 3.5 12.7 317
11/01/2019 3:20 -0.7 70 0.0 0 0.0 3.5 12.7 322
11/01/2019 3:30 -0.7 70 0.0 0 0.0 3.9 14.1 331
11/01/2019 3:40 -0.6 70 0.0 0 0.0 4.2 15.0 336
11/01/2019 3:50 -0.7 71 0.0 0 0.0 3.8 13.8 335
11/01/2019 4:00 -0.7 71 0.0 0 0.0 4.8 17.4 346
11/01/2019 4:10 -0.7 70 0.0 0 0.0 4.9 17.7 344
11/01/2019 4:20 -0.7 69 0.0 0 0.0 4.5 16.3 347
11/01/2019 4:30 -0.8 67 0.0 0 0.0 4.3 15.4 346
11/01/2019 4:40 -0.8 66 0.0 0 0.0 3.7 13.2 339
11/01/2019 4:50 -1.0 65 0.0 0 0.0 3.3 12.0 336
11/01/2019 5:00 -1.2 65 0.0 0 0.0 2.6 9.5 321
11/01/2019 5:10 -1.2 66 0.0 0 0.0 3.0 10.7 335
11/01/2019 5:20 -1.3 65 0.0 0 0.0 3.0 10.9 331
11/01/2019 5:30 -1.3 64 0.0 0 0.0 3.3 11.8 335
11/01/2019 5:40 -1.3 65 0.0 0 0.0 3.0 10.9 332
11/01/2019 5:50 -1.4 66 0.0 0 0.0 2.9 10.4 332
11/01/2019 6:00 -1.4 66 0.0 0 0.0 2.9 10.5 320
11/01/2019 6:10 -1.4 66 0.0 0 0.0 3.2 11.3 332
11/01/2019 6:20 -1.4 66 0.0 0 0.0 4.0 14.4 339
11/01/2019 6:30 -1.4 66 0.0 0 0.0 3.3 12.0 340
11/01/2019 6:40 -1.4 66 0.0 0 0.0 3.8 13.7 338
11/01/2019 6:50 -1.4 66 0.0 0 0.0 3.5 12.7 345
11/01/2019 7:00 -1.3 65 0.0 0 0.0 3.2 11.7 344
11/01/2019 7:10 -1.3 65 0.0 0 0.0 4.2 14.9 344
11/01/2019 7:20 -1.3 65 0.0 0 0.0 4.0 14.3 343
11/01/2019 7:30 -1.3 65 0.0 0 0.0 5.1 18.2 353
11/01/2019 7:40 -1.2 66 0.0 0 0.0 4.1 14.7 356
11/01/2019 7:50 -1.1 66 0.0 0 0.0 5.0 18.0 4
11/01/2019 8:00 -1.0 66 3.6 0 0.0 4.8 17.4 360
11/01/2019 8:10 -1.0 66 17.6 0 0.0 4.3 15.4 7
11/01/2019 8:20 -0.9 66 23.4 0 0.0 4.5 16.0 11
11/01/2019 8:30 -0.7 65 28.4 0 0.0 4.3 15.4 5
11/01/2019 8:40 -0.2 64 105.1 478 0.0 4.3 15.3 359
11/01/2019 8:50 0.6 60 148.6 600 0.0 4.5 16.1 358
11/01/2019 9:00 1.0 59 174.5 600 0.0 4.9 17.8 5
11/01/2019 9:10 1.2 59 199.5 600 0.0 5.1 18.4 4
11/01/2019 9:20 1.5 58 224.4 600 0.0 5.0 17.9 6
11/01/2019 9:30 1.8 57 251.6 600 0.0 4.5 16.2 3
11/01/2019 9:40 1.9 57 261.0 572 0.0 4.7 17.1 2
11/01/2019 9:50 2.0 55 203.3 376 0.0 3.1 11.2 9
11/01/2019 10:00 1.9 54 184.9 302 0.0 5.2 18.6 17
11/01/2019 10:10 1.8 54 113.3 118 0.0 5.1 18.4 19
11/01/2019 10:20 1.6 55 77.0 18 0.0 5.4 19.4 6
11/01/2019 10:30 1.7 56 138.2 144 0.0 4.2 15.0 5
11/01/2019 10:40 2.1 55 177.9 224 0.0 4.0 14.3 5
11/01/2019 10:50 2.1 56 96.4 38 0.0 4.6 16.6 3
11/01/2019 11:00 2.2 55 139.3 122 0.0 4.6 16.6 0
11/01/2019 11:10 2.5 55 164.5 158 0.0 4.2 15.1 350
11/01/2019 11:20 2.6 54 166.5 134 0.0 4.6 16.7 348
11/01/2019 11:30 2.9 54 220.0 210 0.0 4.6 16.7 357
11/01/2019 11:40 3.1 54 282.7 314 0.0 5.5 19.8 0
11/01/2019 11:50 3.4 53 329.3 380 0.0 5.7 20.3 359
11/01/2019 12:00 3.6 53 371.5 438 0.0 4.9 17.5 359
11/01/2019 12:10 3.8 52 410.5 498 0.0 5.2 18.8 357
11/01/2019 12:20 4.2 51 454.0 544 0.0 5.2 18.7 1
11/01/2019 12:30 3.9 52 392.2 448 0.0 5.5 19.8 0
11/01/2019 12:40 3.9 52 342.6 404 0.0 4.7 17.0 340
11/01/2019 12:50 3.5 52 191.8 124 0.0 5.2 18.6 339
11/01/2019 13:00 3.4 53 198.1 154 0.0 4.4 15.8 349
11/01/2019 13:10 3.2 54 119.8 0 0.0 4.3 15.4 345
11/01/2019 13:20 3.2 54 111.6 0 0.0 4.1 14.8 351
11/01/2019 13:30 3.3 54 106.1 6 0.0 3.5 12.4 359
11/01/2019 13:40 3.4 54 160.0 148 0.0 3.5 12.5 9
11/01/2019 13:50 3.9 52 291.8 402 0.0 3.7 13.1 351
11/01/2019 14:00 4.3 52 362.7 590 0.0 3.0 10.8 1
11/01/2019 14:10 4.4 52 271.3 422 0.0 4.6 16.7 357
11/01/2019 14:20 4.3 52 246.3 390 0.0 4.3 15.3 1
11/01/2019 14:30 4.1 53 185.6 288 0.0 4.2 15.2 358
11/01/2019 14:40 4.3 53 265.9 532 0.0 3.6 13.0 353
11/01/2019 14:50 4.2 53 264.9 544 0.0 4.7 16.7 17
11/01/2019 15:00 4.3 53 254.4 546 0.0 4.0 14.2 4
11/01/2019 15:10 3.6 55 62.6 0 0.0 4.2 15.1 12
11/01/2019 15:20 3.3 56 86.8 104 0.0 3.6 12.9 355
11/01/2019 15:30 3.7 55 145.3 458 0.0 2.2 8.0 340
11/01/2019 15:40 3.4 56 59.4 0 0.0 3.6 13.1 2
11/01/2019 15:50 3.1 57 33.6 0 0.0 2.7 9.8 354
11/01/2019 16:00 2.8 58 25.5 0 0.0 2.1 7.7 322
11/01/2019 16:10 2.8 58 31.9 0 0.0 3.7 13.4 352
11/01/2019 16:20 2.9 58 53.4 464 0.0 4.2 14.9 350
11/01/2019 16:30 3.0 58 42.7 600 0.0 4.3 15.3 343
11/01/2019 16:40 2.9 58 21.0 104 0.0 3.2 11.5 332
11/01/2019 16:50 2.5 59 0.0 0 0.0 3.1 11.1 321
11/01/2019 17:00 2.4 59 0.0 0 0.0 3.3 11.8 316
11/01/2019 17:10 2.3 60 0.0 0 0.0 4.1 14.9 333
11/01/2019 17:20 2.3 60 0.0 0 0.0 3.3 11.9 328
11/01/2019 17:30 2.2 60 0.0 0 0.0 3.8 13.6 328
11/01/2019 17:40 2.1 60 0.0 0 0.0 3.3 11.9 324
11/01/2019 17:50 2.0 61 0.0 0 0.0 3.0 10.6 319
11/01/2019 18:00 2.1 61 0.0 0 0.0 3.4 12.2 327
11/01/2019 18:10 2.0 61 0.0 0 0.0 2.9 10.5 298
11/01/2019 18:20 1.9 61 0.0 0 0.0 3.9 13.9 299
11/01/2019 18:30 2.0 61 0.0 0 0.0 4.4 15.9 309
11/01/2019 18:40 2.1 60 0.0 0 0.0 4.6 16.4 309
11/01/2019 18:50 2.1 60 0.0 0 0.0 4.4 15.7 307
11/01/2019 19:00 2.0 61 0.0 0 0.0 4.4 15.9 304
11/01/2019 19:10 2.0 61 0.0 0 0.0 3.6 12.9 310
11/01/2019 19:20 1.9 61 0.0 0 0.0 3.8 13.8 304
11/01/2019 19:30 1.9 62 0.0 0 0.0 4.1 14.8 306
11/01/2019 19:40 2.0 61 0.0 0 0.0 4.0 14.4 307
11/01/2019 19:50 1.9 61 0.0 0 0.0 3.4 12.3 324
11/01/2019 20:00 1.9 62 0.0 0 0.0 3.1 11.1 314
11/01/2019 20:10 1.8 62 0.0 0 0.0 3.0 10.6 309
11/01/2019 20:20 1.7 62 0.0 0 0.0 3.4 12.4 310
11/01/2019 20:30 1.7 62 0.0 0 0.0 2.8 10.2 315
11/01/2019 20:40 1.7 61 0.0 0 0.0 2.8 10.2 310
11/01/2019 20:50 1.7 61 0.0 0 0.0 2.9 10.5 305
11/01/2019 21:00 1.5 62 0.0 0 0.0 2.6 9.3 322
11/01/2019 21:10 1.7 62 0.0 0 0.0 2.1 7.7 321
11/01/2019 21:20 1.7 61 0.0 0 0.0 3.2 11.5 309
11/01/2019 21:30 1.6 61 0.0 0 0.0 3.1 11.2 307
11/01/2019 21:40 1.6 62 0.0 0 0.0 3.6 13.0 296
11/01/2019 21:50 1.5 62 0.0 0 0.0 3.7 13.3 305
11/01/2019 22:00 1.6 62 0.0 0 0.0 3.3 11.7 296
11/01/2019 22:10 1.5 62 0.0 0 0.0 2.7 9.8 307
11/01/2019 22:20 1.5 62 0.0 0 0.0 3.0 10.8 277
11/01/2019 22:30 1.0 64 0.0 0 0.0 3.2 11.6 275
11/01/2019 22:40 0.9 65 0.0 0 0.0 4.1 14.7 277
11/01/2019 22:50 0.9 64 0.0 0 0.0 3.9 14.1 272
11/01/2019 23:00 0.8 65 0.0 0 0.0 3.8 13.5 273
11/01/2019 23:10 0.7 66 0.0 0 0.0 3.1 11.2 270
11/01/2019 23:20 0.8 65 0.0 0 0.0 3.0 10.9 269
11/01/2019 23:30 0.7 66 0.0 0 0.0 4.4 15.9 275
11/01/2019 23:40 0.9 65 0.0 0 0.0 4.8 17.2 280
11/01/2019 23:50 0.9 65 0.0 0 0.0 4.6 16.7 281
Anterior Página 1 de 1 Siguiente

NOTA: Tipo de datos según el color:
   - Valores diarios o 10 minutos correctos
   - Valores diarios calculados a partir de un número de datos 10 minutos menor que 144 y mayor que 120, o de un número de datos semihorarios menor que 48 y mayor que 40 (caso de las estaciones de Riegos de Navarra y del MARM)
   - Valores diez minutos estimados


Contacto        Enlaces        Aviso legal